Time;durP1;ratioP1;P1;durP2;ratioP2;P2;SDS_P1;SDS_P2;PMS_P1;PMS_P2;Temp;Humidity;BMP_temperature;BMP_pressure;BME280_temperature;BME280_humidity;BME280_pressure;Samples;Min_cycle;Max_cycle;Signal;HPM_P1;HPM_P2
2023/07/23 00:02:03;;;;;;;3.53;2.90;;;;;;;;;;5009141;28;20297;-40
2023/07/23 00:04:30;;;;;;;3.43;2.40;;;;;;;;;;5010525;28;20205;-39
2023/07/23 00:06:57;;;;;;;3.43;3.03;;;;;;;;;;5006322;28;20201;-32
2023/07/23 00:09:26;;;;;;;3.33;2.53;;;;;;;;;;5027148;28;20252;-38
2023/07/23 00:11:54;;;;;;;3.00;2.70;;;;;;;;;;5007645;28;20202;-34
2023/07/23 00:14:21;;;;;;;3.20;2.73;;;;;;;;;;5017995;28;20354;-39
2023/07/23 00:16:48;;;;;;;3.57;2.83;;;;;;;;;;5006931;28;20216;-38
2023/07/23 00:19:19;;;;;;;2.73;2.53;;;;;;;;;;5025869;28;20217;-33
2023/07/23 00:21:46;;;;;;;3.07;2.67;;;;;;;;;;5015706;28;20235;-40
2023/07/23 00:24:13;;;;;;;2.50;2.30;;;;;;;;;;5011202;28;20264;-40
2023/07/23 00:26:42;;;;;;;4.43;2.70;;;;;;;;;;5000313;28;20215;-31
2023/07/23 00:29:09;;;;;;;3.73;2.80;;;;;;;;;;5024617;28;20223;-34
2023/07/23 00:31:36;;;;;;;3.50;3.03;;;;;;;;;;5020625;28;20203;-39
2023/07/23 00:34:04;;;;;;;3.33;2.67;;;;;;;;;;5016113;28;20212;-37
2023/07/23 00:36:31;;;;;;;5.17;3.13;;;;;;;;;;5000238;28;20216;-37
2023/07/23 00:38:58;;;;;;;3.87;2.40;;;;;;;;;;5015803;28;20234;-35
2023/07/23 00:41:25;;;;;;;3.30;3.00;;;;;;;;;;5010250;28;20213;-35
2023/07/23 00:43:54;;;;;;;2.83;2.53;;;;;;;;;;5014123;28;20208;-37
2023/07/23 00:46:28;;;;;;;4.60;3.43;;;;;;;;;;5020768;28;20204;-37
2023/07/23 00:48:55;;;;;;;3.20;2.73;;;;;;;;;;5010463;28;20226;-34
2023/07/23 00:51:22;;;;;;;4.33;2.70;;;;;;;;;;5018059;28;20215;-30
2023/07/23 00:53:50;;;;;;;5.47;2.43;;;;;;;;;;5031958;28;20196;-36
2023/07/23 00:56:18;;;;;;;4.97;2.80;;;;;;;;;;5018243;28;20296;-36
2023/07/23 00:58:45;;;;;;;3.00;2.70;;;;;;;;;;5012023;28;20233;-37
2023/07/23 01:01:14;;;;;;;4.23;3.20;;;;;;;;;;5012462;28;20214;-32
2023/07/23 01:03:41;;;;;;;3.80;3.30;;;;;;;;;;5020083;28;20202;-33
2023/07/23 01:06:09;;;;;;;4.17;2.73;;;;;;;;;;5034449;28;20740;-31
2023/07/23 01:08:36;;;;;;;3.77;2.97;;;;;;;;;;5034576;28;20224;-37
2023/07/23 01:11:03;;;;;;;5.23;3.10;;;;;;;;;;5013769;28;20198;-35
2023/07/23 01:13:30;;;;;;;3.90;2.93;;;;;;;;;;5021008;28;20211;-38
2023/07/23 01:15:58;;;;;;;4.00;3.00;;;;;;;;;;5018214;28;20553;-37
2023/07/23 01:18:27;;;;;;;4.60;3.00;;;;;;;;;;5021328;28;20231;-36
2023/07/23 01:20:54;;;;;;;2.60;2.40;;;;;;;;;;5015469;28;20201;-37
2023/07/23 01:23:22;;;;;;;2.43;2.20;;;;;;;;;;5015191;28;20208;-34
2023/07/23 01:25:50;;;;;;;4.23;2.60;;;;;;;;;;5012900;28;20215;-34
2023/07/23 01:28:17;;;;;;;4.10;2.83;;;;;;;;;;5014099;28;20228;-34
2023/07/23 01:30:44;;;;;;;3.20;2.90;;;;;;;;;;5025122;28;20259;-36
2023/07/23 01:33:11;;;;;;;3.43;2.40;;;;;;;;;;5030779;28;20225;-38
2023/07/23 01:35:39;;;;;;;4.53;3.07;;;;;;;;;;5002810;28;20205;-35
2023/07/23 01:38:06;;;;;;;2.70;2.50;;;;;;;;;;5016353;28;20216;-34
2023/07/23 01:40:35;;;;;;;4.30;3.03;;;;;;;;;;5031052;28;20211;-36
2023/07/23 01:43:02;;;;;;;3.80;2.43;;;;;;;;;;5009452;28;20205;-41
2023/07/23 01:45:30;;;;;;;3.00;2.70;;;;;;;;;;5022225;28;20295;-34
2023/07/23 01:47:57;;;;;;;2.90;2.40;;;;;;;;;;5021848;28;20197;-36
2023/07/23 01:50:24;;;;;;;3.63;2.43;;;;;;;;;;5008763;28;20232;-36
2023/07/23 01:52:51;;;;;;;3.47;3.17;;;;;;;;;;5021682;28;20197;-40
2023/07/23 01:55:18;;;;;;;4.33;2.50;;;;;;;;;;5014377;28;20201;-36
2023/07/23 01:57:47;;;;;;;2.60;2.40;;;;;;;;;;5010694;28;20212;-36
2023/07/23 02:00:14;;;;;;;13.80;2.57;;;;;;;;;;5033636;28;20223;-39
2023/07/23 02:02:42;;;;;;;4.90;2.70;;;;;;;;;;5033894;28;20218;-39
2023/07/23 02:07:37;;;;;;;2.90;2.57;;;;;;;;;;5021410;28;20250;-36
2023/07/23 02:10:04;;;;;;;3.00;2.50;;;;;;;;;;5004039;28;20225;-36
2023/07/23 02:12:32;;;;;;;2.93;2.33;;;;;;;;;;5019066;28;20208;-34
2023/07/23 02:15:00;;;;;;;4.83;3.47;;;;;;;;;;5024179;28;20223;-33
2023/07/23 02:17:27;;;;;;;2.97;2.63;;;;;;;;;;5024803;28;20212;-34
2023/07/23 02:19:54;;;;;;;3.33;2.90;;;;;;;;;;5022581;28;20317;-33
2023/07/23 02:22:22;;;;;;;5.23;2.77;;;;;;;;;;5023005;28;20212;-35
2023/07/23 02:24:49;;;;;;;3.63;2.70;;;;;;;;;;5029945;28;20236;-33
2023/07/23 02:27:16;;;;;;;3.17;2.67;;;;;;;;;;5022622;28;20208;-35
2023/07/23 02:29:43;;;;;;;4.03;2.77;;;;;;;;;;5022787;28;20234;-33
2023/07/23 02:32:12;;;;;;;4.70;2.90;;;;;;;;;;5033354;28;20203;-35
2023/07/23 02:34:39;;;;;;;4.60;2.73;;;;;;;;;;5033607;28;20211;-36
2023/07/23 02:37:07;;;;;;;3.07;2.77;;;;;;;;;;5017959;28;20203;-35
2023/07/23 02:39:34;;;;;;;2.90;2.60;;;;;;;;;;5007181;28;20229;-32
2023/07/23 02:42:01;;;;;;;3.37;2.67;;;;;;;;;;5016328;28;20229;-31
2023/07/23 02:44:28;;;;;;;3.83;2.60;;;;;;;;;;5015235;28;20214;-33
2023/07/23 02:46:55;;;;;;;4.17;2.67;;;;;;;;;;5017940;28;20200;-35
2023/07/23 02:49:24;;;;;;;4.07;2.73;;;;;;;;;;5013943;28;20232;-33
2023/07/23 02:51:51;;;;;;;5.13;3.00;;;;;;;;;;5028764;28;20220;-36
2023/07/23 02:54:18;;;;;;;2.83;2.40;;;;;;;;;;5021666;28;20211;-30
2023/07/23 02:56:45;;;;;;;2.70;2.47;;;;;;;;;;5006533;28;20200;-35
2023/07/23 02:59:12;;;;;;;4.63;2.90;;;;;;;;;;5020235;28;20607;-32
2023/07/23 03:01:39;;;;;;;5.10;3.00;;;;;;;;;;5012713;28;20215;-31
2023/07/23 03:04:07;;;;;;;3.00;2.60;;;;;;;;;;5011903;28;20621;-36
2023/07/23 03:06:35;;;;;;;3.33;3.03;;;;;;;;;;5019773;28;20221;-34
2023/07/23 03:09:03;;;;;;;2.93;2.40;;;;;;;;;;5020925;28;20234;-34
2023/07/23 03:11:30;;;;;;;2.80;2.60;;;;;;;;;;5015701;28;20289;-39
2023/07/23 03:13:57;;;;;;;2.90;2.50;;;;;;;;;;5022456;28;20221;-30
2023/07/23 03:16:24;;;;;;;4.33;2.87;;;;;;;;;;5007954;28;20203;-32
2023/07/23 03:18:51;;;;;;;5.80;3.37;;;;;;;;;;5015086;28;20242;-34
2023/07/23 03:21:19;;;;;;;3.80;3.10;;;;;;;;;;5018913;28;20647;-36
2023/07/23 03:23:47;;;;;;;3.67;2.87;;;;;;;;;;5023118;28;20203;-33
2023/07/23 03:26:19;;;;;;;3.53;3.03;;;;;;;;;;5021670;28;20217;-35
2023/07/23 03:28:48;;;;;;;3.23;2.90;;;;;;;;;;5020111;28;20219;-35
2023/07/23 03:31:15;;;;;;;4.07;3.37;;;;;;;;;;5025151;28;20207;-32
2023/07/23 03:33:43;;;;;;;3.03;2.73;;;;;;;;;;5025551;28;20216;-37
2023/07/23 03:36:11;;;;;;;3.30;2.83;;;;;;;;;;5021014;28;20212;-33
2023/07/23 03:38:38;;;;;;;3.70;2.93;;;;;;;;;;5020361;28;20289;-34
2023/07/23 03:41:07;;;;;;;3.47;2.60;;;;;;;;;;5012875;28;20212;-34
2023/07/23 03:43:34;;;;;;;5.47;3.40;;;;;;;;;;5019735;28;20238;-35
2023/07/23 03:46:01;;;;;;;3.53;2.53;;;;;;;;;;5015334;28;20207;-32
2023/07/23 03:48:28;;;;;;;6.07;3.53;;;;;;;;;;5018232;28;20229;-32
2023/07/23 03:50:55;;;;;;;3.80;3.00;;;;;;;;;;5014542;28;20212;-38
2023/07/23 03:53:22;;;;;;;3.47;2.80;;;;;;;;;;5026949;28;20209;-34
2023/07/23 03:55:49;;;;;;;3.73;3.00;;;;;;;;;;5028952;28;20225;-36
2023/07/23 03:58:18;;;;;;;4.10;3.10;;;;;;;;;;5031107;28;20219;-36
2023/07/23 04:00:45;;;;;;;2.63;2.43;;;;;;;;;;5032653;28;20199;-31
2023/07/23 04:03:12;;;;;;;4.37;3.30;;;;;;;;;;5036433;28;20207;-35
2023/07/23 04:05:39;;;;;;;4.33;2.73;;;;;;;;;;5030743;28;20225;-37
2023/07/23 04:08:06;;;;;;;3.93;2.87;;;;;;;;;;5021634;28;20211;-34
2023/07/23 04:10:34;;;;;;;3.40;2.83;;;;;;;;;;5024889;28;20202;-32
2023/07/23 04:13:03;;;;;;;3.83;2.60;;;;;;;;;;5025409;28;20207;-33
2023/07/23 04:15:31;;;;;;;4.20;2.80;;;;;;;;;;5020709;28;20208;-33
2023/07/23 04:17:59;;;;;;;3.93;2.77;;;;;;;;;;5033660;28;20862;-31
2023/07/23 04:20:28;;;;;;;3.93;2.90;;;;;;;;;;5030305;28;20228;-31
2023/07/23 04:22:55;;;;;;;4.57;2.90;;;;;;;;;;5015381;28;20204;-32
2023/07/23 04:25:22;;;;;;;3.17;2.60;;;;;;;;;;5028839;28;20207;-33
2023/07/23 04:27:49;;;;;;;2.93;2.63;;;;;;;;;;5025460;28;20213;-32
2023/07/23 04:30:16;;;;;;;2.53;2.33;;;;;;;;;;5026753;28;20226;-30
2023/07/23 04:32:45;;;;;;;2.43;2.23;;;;;;;;;;5018170;28;20213;-33
2023/07/23 04:35:12;;;;;;;4.03;2.87;;;;;;;;;;5097406;22;20239;-35
2023/07/23 04:37:39;;;;;;;3.33;2.90;;;;;;;;;;5013096;28;20213;-35
2023/07/23 04:40:07;;;;;;;3.37;2.43;;;;;;;;;;4996746;28;20223;-32
2023/07/23 04:42:34;;;;;;;4.87;2.90;;;;;;;;;;4985197;28;20219;-34
2023/07/23 04:45:02;;;;;;;2.63;2.43;;;;;;;;;;4992737;28;20204;-35
2023/07/23 04:47:29;;;;;;;2.97;2.73;;;;;;;;;;4990100;28;20217;-38
2023/07/23 04:49:57;;;;;;;3.93;2.70;;;;;;;;;;5014097;28;20228;-32
2023/07/23 04:52:25;;;;;;;3.87;2.50;;;;;;;;;;4990826;28;20303;-32
2023/07/23 04:54:52;;;;;;;2.90;2.67;;;;;;;;;;4993195;28;20208;-34
2023/07/23 04:57:19;;;;;;;2.23;2.03;;;;;;;;;;4988491;28;20659;-33
2023/07/23 04:59:46;;;;;;;2.63;2.30;;;;;;;;;;4995940;28;20230;-34
2023/07/23 05:02:13;;;;;;;2.70;2.43;;;;;;;;;;4998167;28;20204;-37
2023/07/23 05:04:40;;;;;;;2.90;2.60;;;;;;;;;;4993860;28;20208;-33
2023/07/23 05:07:09;;;;;;;2.63;2.30;;;;;;;;;;4981946;28;20204;-33
2023/07/23 05:09:36;;;;;;;2.70;2.30;;;;;;;;;;4992941;28;20336;-33
2023/07/23 05:12:03;;;;;;;4.00;2.50;;;;;;;;;;4986007;28;20215;-37
2023/07/23 05:14:30;;;;;;;3.33;2.67;;;;;;;;;;4992976;28;20243;-33
2023/07/23 05:16:57;;;;;;;2.60;2.40;;;;;;;;;;4992217;28;20215;-34
2023/07/23 05:19:24;;;;;;;2.80;2.47;;;;;;;;;;4993352;28;20228;-36
2023/07/23 05:21:53;;;;;;;2.90;2.43;;;;;;;;;;4987589;28;20219;-36
2023/07/23 05:24:21;;;;;;;2.33;2.10;;;;;;;;;;4987019;28;20270;-30
2023/07/23 05:26:48;;;;;;;3.30;2.57;;;;;;;;;;4982080;28;20209;-34
2023/07/23 05:29:16;;;;;;;4.03;3.03;;;;;;;;;;4993461;28;20224;-35
2023/07/23 05:31:43;;;;;;;2.97;2.47;;;;;;;;;;4996220;28;20581;-32
2023/07/23 05:34:10;;;;;;;3.13;2.37;;;;;;;;;;4993044;28;20209;-32
2023/07/23 05:36:37;;;;;;;3.50;2.60;;;;;;;;;;4983602;28;20224;-36
2023/07/23 05:39:04;;;;;;;4.30;3.10;;;;;;;;;;4992201;28;20230;-31
2023/07/23 05:41:33;;;;;;;3.67;2.73;;;;;;;;;;4983909;28;20214;-29
2023/07/23 05:44:00;;;;;;;2.70;2.50;;;;;;;;;;4994913;28;20218;-32
2023/07/23 05:46:27;;;;;;;4.33;2.80;;;;;;;;;;4994555;28;20198;-33
2023/07/23 05:48:54;;;;;;;3.30;2.73;;;;;;;;;;4993436;28;20229;-30
2023/07/23 05:51:21;;;;;;;3.40;2.90;;;;;;;;;;4982130;28;20218;-32
2023/07/23 05:53:49;;;;;;;3.43;2.97;;;;;;;;;;4989111;28;20204;-32
2023/07/23 05:56:16;;;;;;;3.57;2.80;;;;;;;;;;4986033;28;20221;-34
2023/07/23 05:58:44;;;;;;;2.93;2.63;;;;;;;;;;4991882;28;20239;-33
2023/07/23 06:01:11;;;;;;;4.07;2.90;;;;;;;;;;4993013;28;20229;-37
2023/07/23 06:03:38;;;;;;;3.10;2.70;;;;;;;;;;4992616;28;20210;-32
2023/07/23 06:06:05;;;;;;;3.13;2.70;;;;;;;;;;4982063;28;20214;-32
2023/07/23 06:08:32;;;;;;;3.77;2.50;;;;;;;;;;4987085;28;20227;-37
2023/07/23 06:11:00;;;;;;;3.13;2.57;;;;;;;;;;4987277;28;20208;-35
2023/07/23 06:13:27;;;;;;;3.60;2.60;;;;;;;;;;4984690;28;20218;-32
2023/07/23 06:15:55;;;;;;;2.97;2.30;;;;;;;;;;4991241;28;20280;-33
2023/07/23 06:18:23;;;;;;;3.37;2.43;;;;;;;;;;4991693;28;20234;-34
2023/07/23 06:20:50;;;;;;;2.67;2.47;;;;;;;;;;4978105;28;20227;-34
2023/07/23 06:23:17;;;;;;;3.47;2.57;;;;;;;;;;4990607;28;20217;-31
2023/07/23 06:25:44;;;;;;;2.67;2.47;;;;;;;;;;4988421;28;20226;-32
2023/07/23 06:28:11;;;;;;;3.20;2.40;;;;;;;;;;4983894;28;20211;-32
2023/07/23 06:30:38;;;;;;;3.07;2.50;;;;;;;;;;4991233;28;20672;-33
2023/07/23 06:33:07;;;;;;;5.07;2.70;;;;;;;;;;4990930;28;20206;-34
2023/07/23 06:35:37;;;;;;;2.50;2.30;;;;;;;;;;4980780;28;20222;-33
2023/07/23 06:38:04;;;;;;;2.57;2.37;;;;;;;;;;4989854;28;20207;-31
2023/07/23 06:40:31;;;;;;;3.17;2.47;;;;;;;;;;4988359;28;20231;-32
2023/07/23 06:42:59;;;;;;;2.80;2.57;;;;;;;;;;4982993;28;20215;-34
2023/07/23 06:45:26;;;;;;;2.47;2.13;;;;;;;;;;4991030;28;20203;-35
2023/07/23 06:47:53;;;;;;;4.30;2.43;;;;;;;;;;4990875;28;20287;-35
2023/07/23 06:50:21;;;;;;;3.10;2.30;;;;;;;;;;4994519;28;20233;-37
2023/07/23 06:52:49;;;;;;;2.60;2.30;;;;;;;;;;4982714;28;20219;-31
2023/07/23 06:55:16;;;;;;;2.37;2.03;;;;;;;;;;4988331;28;20200;-37
2023/07/23 06:57:43;;;;;;;2.13;2.03;;;;;;;;;;4984302;28;20286;-34
2023/07/23 07:00:12;;;;;;;2.87;2.43;;;;;;;;;;4980711;28;20592;-36
2023/07/23 07:02:39;;;;;;;3.40;2.40;;;;;;;;;;4986689;28;20269;-30
2023/07/23 07:05:06;;;;;;;4.27;2.33;;;;;;;;;;4987694;28;20214;-32
2023/07/23 07:07:35;;;;;;;2.50;2.27;;;;;;;;;;4985526;28;20207;-35
2023/07/23 07:10:02;;;;;;;2.63;2.27;;;;;;;;;;4990071;28;20231;-33
2023/07/23 07:12:29;;;;;;;2.57;2.37;;;;;;;;;;4979682;28;20217;-32
2023/07/23 07:14:56;;;;;;;2.50;2.30;;;;;;;;;;4990054;28;20261;-29
2023/07/23 07:17:24;;;;;;;2.10;2.00;;;;;;;;;;4989682;28;20299;-33
2023/07/23 07:19:51;;;;;;;2.30;2.10;;;;;;;;;;4984389;28;20242;-30
2023/07/23 07:22:18;;;;;;;5.03;2.33;;;;;;;;;;4989761;28;20351;-36
2023/07/23 07:24:47;;;;;;;2.90;2.53;;;;;;;;;;4990516;28;20211;-34
2023/07/23 07:27:15;;;;;;;3.60;2.10;;;;;;;;;;4982258;28;20208;-34
2023/07/23 07:29:42;;;;;;;2.53;2.28;;;;;;;;;;4981945;28;20338;-35
2023/07/23 07:32:09;;;;;;;3.15;2.38;;;;;;;;;;4994251;28;20291;-29
2023/07/23 07:34:37;;;;;;;2.22;2.03;;;;;;;;;;4994934;28;20207;-33
2023/07/23 07:37:05;;;;;;;3.30;2.38;;;;;;;;;;4995293;28;20212;-32
2023/07/23 07:39:33;;;;;;;2.40;2.00;;;;;;;;;;4990028;28;20261;-34
2023/07/23 07:42:01;;;;;;;2.03;1.85;;;;;;;;;;4985067;28;20279;-34
2023/07/23 07:44:30;;;;;;;2.00;1.90;;;;;;;;;;4994425;28;20660;-32
2023/07/23 07:46:57;;;;;;;2.78;1.70;;;;;;;;;;4993589;28;20293;-33
2023/07/23 07:49:25;;;;;;;1.75;1.65;;;;;;;;;;4990087;28;20234;-34
2023/07/23 07:51:52;;;;;;;1.98;1.83;;;;;;;;;;4988441;28;20209;-29
2023/07/23 07:54:19;;;;;;;1.92;1.80;;;;;;;;;;4994671;28;20223;-32
2023/07/23 07:56:47;;;;;;;2.20;2.00;;;;;;;;;;4982915;28;20301;-34
2023/07/23 07:59:16;;;;;;;2.10;1.90;;;;;;;;;;4993302;28;20236;-31
2023/07/23 08:01:43;;;;;;;2.15;1.60;;;;;;;;;;4994018;28;20599;-33
2023/07/23 08:04:11;;;;;;;2.97;1.80;;;;;;;;;;4986367;28;20211;-34
2023/07/23 08:06:39;;;;;;;2.13;1.65;;;;;;;;;;4988349;28;20217;-33
2023/07/23 08:09:06;;;;;;;2.03;1.88;;;;;;;;;;4990954;28;20221;-33
2023/07/23 08:11:34;;;;;;;1.98;1.88;;;;;;;;;;4977566;28;20193;-35
2023/07/23 08:14:02;;;;;;;2.55;2.35;;;;;;;;;;4989629;28;20220;-32
2023/07/23 08:16:31;;;;;;;1.73;1.63;;;;;;;;;;4988131;28;20215;-32
2023/07/23 08:18:58;;;;;;;1.65;1.55;;;;;;;;;;4990303;28;20226;-34
2023/07/23 08:21:26;;;;;;;2.38;1.50;;;;;;;;;;4999925;28;20431;-34
2023/07/23 08:23:54;;;;;;;1.60;1.50;;;;;;;;;;5009285;28;20221;-31
2023/07/23 08:26:21;;;;;;;4.00;1.88;;;;;;;;;;5003525;28;20207;-37
2023/07/23 08:28:51;;;;;;;2.50;1.30;;;;;;;;;;5008752;28;20539;-32
2023/07/23 08:31:19;;;;;;;1.85;1.65;;;;;;;;;;5011931;28;20213;-38
2023/07/23 08:33:48;;;;;;;1.77;1.63;;;;;;;;;;4992619;28;20199;-33
2023/07/23 08:36:16;;;;;;;1.95;1.85;;;;;;;;;;5000323;28;20217;-34
2023/07/23 08:38:43;;;;;;;3.58;2.10;;;;;;;;;;5010830;28;20230;-32
2023/07/23 08:41:17;;;;;;;1.65;1.55;;;;;;;;;;5003105;28;20234;-32
2023/07/23 08:44:11;;;;;;;2.78;1.83;;;;;;;;;;5007698;28;20216;-30
2023/07/23 08:46:45;;;;;;;2.05;1.83;;;;;;;;;;5006000;28;20206;-32
2023/07/23 08:49:14;;;;;;;1.80;1.70;;;;;;;;;;4991728;28;20329;-36
2023/07/23 08:51:43;;;;;;;1.58;1.48;;;;;;;;;;5008866;28;20305;-34
2023/07/23 08:54:10;;;;;;;1.35;1.25;;;;;;;;;;5010457;28;20204;-35
2023/07/23 08:56:38;;;;;;;1.58;1.48;;;;;;;;;;5000767;28;20286;-33
2023/07/23 08:59:07;;;;;;;2.10;1.90;;;;;;;;;;5273304;22;20228;-28
2023/07/23 09:01:34;;;;;;;3.65;1.65;;;;;;;;;;5033465;28;20228;-29
2023/07/23 09:04:02;;;;;;;1.80;1.70;;;;;;;;;;5064943;28;20212;-27
2023/07/23 09:06:31;;;;;;;2.20;2.00;;;;;;;;;;5062028;28;20294;-28
2023/07/23 09:09:05;;;;;;;3.17;1.80;;;;;;;;;;5029241;28;20430;-29
2023/07/23 09:11:34;;;;;;;1.50;1.40;;;;;;;;;;5020380;28;20227;-30
2023/07/23 09:14:01;;;;;;;2.25;1.60;;;;;;;;;;5024470;28;20215;-27
2023/07/23 09:16:28;;;;;;;1.55;1.45;;;;;;;;;;5027554;28;20662;-29
2023/07/23 09:18:56;;;;;;;4.07;1.80;;;;;;;;;;5030913;28;20230;-29
2023/07/23 09:21:27;;;;;;;1.92;1.80;;;;;;;;;;5026037;28;20220;-30
2023/07/23 09:23:56;;;;;;;3.30;2.10;;;;;;;;;;5024316;28;20201;-28
2023/07/23 09:26:24;;;;;;;2.38;1.63;;;;;;;;;;5013749;28;20263;-29
2023/07/23 09:28:53;;;;;;;2.47;1.55;;;;;;;;;;5026313;28;20601;-29
2023/07/23 09:31:23;;;;;;;3.35;1.60;;;;;;;;;;5046525;28;20209;-27
2023/07/23 09:33:53;;;;;;;1.55;1.45;;;;;;;;;;5040622;28;20213;-26
2023/07/23 09:36:21;;;;;;;1.48;1.38;;;;;;;;;;5018782;28;20220;-27
2023/07/23 09:38:54;;;;;;;4.38;1.40;;;;;;;;;;5035501;28;20667;-29
2023/07/23 09:41:22;;;;;;;2.38;1.20;;;;;;;;;;5043257;28;20216;-29
2023/07/23 09:43:50;;;;;;;4.28;1.40;;;;;;;;;;5041833;28;20213;-27
2023/07/23 09:46:17;;;;;;;1.58;1.48;;;;;;;;;;5050087;28;20217;-30
2023/07/23 09:48:48;;;;;;;6.30;1.40;;;;;;;;;;5044627;28;20233;-27
2023/07/23 09:51:15;;;;;;;4.00;1.30;;;;;;;;;;5026888;28;20202;-26
2023/07/23 09:53:45;;;;;;;1.55;1.45;;;;;;;;;;5039863;28;20215;-30
2023/07/23 09:56:13;;;;;;;2.00;1.40;;;;;;;;;;5023328;28;20571;-29
2023/07/23 09:58:43;;;;;;;2.78;1.33;;;;;;;;;;5042679;28;20227;-28
2023/07/23 10:01:10;;;;;;;3.80;1.42;;;;;;;;;;5031442;28;20300;-29
2023/07/23 10:03:38;;;;;;;1.05;1.05;;;;;;;;;;5050829;28;20299;-28
2023/07/23 10:06:10;;;;;;;5.45;1.90;;;;;;;;;;5040344;28;20213;-28
2023/07/23 10:08:37;;;;;;;2.33;1.80;;;;;;;;;;5037771;28;20228;-27
2023/07/23 10:11:05;;;;;;;1.52;1.42;;;;;;;;;;5027246;28;20214;-27
2023/07/23 10:13:32;;;;;;;1.42;1.42;;;;;;;;;;5034507;28;20290;-26
2023/07/23 10:16:01;;;;;;;2.00;1.27;;;;;;;;;;5031126;28;20236;-28
2023/07/23 10:18:29;;;;;;;2.05;1.30;;;;;;;;;;5032237;28;20224;-27
2023/07/23 10:20:56;;;;;;;2.45;1.52;;;;;;;;;;5030313;28;20287;-26
2023/07/23 10:23:24;;;;;;;2.15;1.15;;;;;;;;;;5026040;28;20202;-28
2023/07/23 10:26:11;;;;;;;1.40;1.30;;;;;;;;;;5013179;28;20214;-29
2023/07/23 10:28:39;;;;;;;1.40;1.30;;;;;;;;;;5037072;28;20310;-27
2023/07/23 10:31:24;;;;;;;1.77;1.52;;;;;;;;;;5050407;28;20311;-29
2023/07/23 10:33:52;;;;;;;1.30;1.20;;;;;;;;;;5028947;28;20213;-27
2023/07/23 10:36:21;;;;;;;2.70;1.42;;;;;;;;;;5018480;28;20207;-30
2023/07/23 10:38:49;;;;;;;1.30;1.20;;;;;;;;;;5038997;28;20215;-29
2023/07/23 10:41:16;;;;;;;1.60;1.50;;;;;;;;;;5027361;28;20221;-27
2023/07/23 10:43:44;;;;;;;1.48;1.38;;;;;;;;;;5018706;28;20820;-29
2023/07/23 10:46:12;;;;;;;1.83;1.73;;;;;;;;;;5045503;28;20211;-27
2023/07/23 10:48:44;;;;;;;1.50;1.40;;;;;;;;;;5052127;28;20303;-27
2023/07/23 10:51:12;;;;;;;2.05;1.85;;;;;;;;;;5030616;28;20233;-30
2023/07/23 10:53:42;;;;;;;2.33;2.08;;;;;;;;;;5024225;28;20232;-27
2023/07/23 10:56:25;;;;;;;3.08;2.17;;;;;;;;;;5028177;28;20213;-28
2023/07/23 10:58:56;;;;;;;2.50;1.75;;;;;;;;;;5044526;28;20235;-27
2023/07/23 11:01:24;;;;;;;1.80;1.70;;;;;;;;;;5045444;28;20268;-27
2023/07/23 11:03:56;;;;;;;3.45;1.77;;;;;;;;;;5035317;28;20213;-26
2023/07/23 11:06:27;;;;;;;2.15;1.95;;;;;;;;;;5029760;28;20209;-25
2023/07/23 11:08:56;;;;;;;2.67;1.60;;;;;;;;;;5036424;28;20225;-26
2023/07/23 11:11:29;;;;;;;3.65;1.73;;;;;;;;;;5012567;28;20213;-26
2023/07/23 11:13:55;;;;;;;9.35;2.55;;;;;;;;;;5029998;28;20213;-26
2023/07/23 11:16:22;;;;;;;2.25;2.05;;;;;;;;;;5012744;28;20209;-28
2023/07/23 11:18:50;;;;;;;4.85;1.90;;;;;;;;;;5029311;28;20232;-29
2023/07/23 11:21:18;;;;;;;4.32;2.70;;;;;;;;;;5015847;28;20226;-28
2023/07/23 11:23:45;;;;;;;5.05;2.50;;;;;;;;;;5023115;28;20216;-25
2023/07/23 11:26:13;;;;;;;3.92;2.40;;;;;;;;;;5009478;28;20203;-28
2023/07/23 11:28:40;;;;;;;3.63;2.20;;;;;;;;;;5021740;28;20238;-25
2023/07/23 11:31:07;;;;;;;2.22;2.03;;;;;;;;;;5032289;28;20201;-27
2023/07/23 11:33:34;;;;;;;3.97;2.30;;;;;;;;;;5032898;28;20213;-27
2023/07/23 11:36:01;;;;;;;2.63;2.17;;;;;;;;;;5028892;28;20541;-32
2023/07/23 11:38:32;;;;;;;2.47;2.00;;;;;;;;;;5017830;28;20232;-29
2023/07/23 11:41:00;;;;;;;4.32;2.03;;;;;;;;;;5026181;28;20204;-28
2023/07/23 11:43:27;;;;;;;2.85;1.77;;;;;;;;;;5024323;28;20220;-27
2023/07/23 11:45:54;;;;;;;2.65;1.70;;;;;;;;;;5025869;28;20295;-26
2023/07/23 11:48:22;;;;;;;2.45;2.25;;;;;;;;;;5026462;28;20232;-29
2023/07/23 11:50:50;;;;;;;1.98;1.80;;;;;;;;;;5026643;28;20209;-25
2023/07/23 11:53:32;;;;;;;4.63;2.30;;;;;;;;;;5029279;28;20200;-28
2023/07/23 11:56:05;;;;;;;2.28;2.00;;;;;;;;;;5026739;28;20447;-28
2023/07/23 11:58:34;;;;;;;2.58;2.10;;;;;;;;;;5017970;28;20240;-29
2023/07/23 12:01:02;;;;;;;2.42;2.10;;;;;;;;;;5032086;28;20209;-29
2023/07/23 12:03:29;;;;;;;5.40;2.22;;;;;;;;;;5032450;28;20299;-26
2023/07/23 12:05:56;;;;;;;4.15;1.88;;;;;;;;;;5025875;28;20210;-29
2023/07/23 12:08:23;;;;;;;4.32;2.35;;;;;;;;;;5011498;28;20233;-30
2023/07/23 12:10:50;;;;;;;2.53;2.10;;;;;;;;;;5010872;28;20219;-26
2023/07/23 12:13:19;;;;;;;3.40;2.03;;;;;;;;;;5014128;28;20225;-27
2023/07/23 12:15:54;;;;;;;4.07;2.28;;;;;;;;;;5018507;28;20264;-26
2023/07/23 12:18:22;;;;;;;2.75;1.98;;;;;;;;;;5042522;28;20201;-25
2023/07/23 12:20:49;;;;;;;2.65;2.45;;;;;;;;;;5022582;28;20217;-26
2023/07/23 12:23:16;;;;;;;3.53;2.10;;;;;;;;;;5029806;28;20226;-27
2023/07/23 12:25:44;;;;;;;5.60;2.30;;;;;;;;;;5015658;28;20213;-27
2023/07/23 12:28:11;;;;;;;4.35;2.38;;;;;;;;;;5033253;28;20199;-26
2023/07/23 12:30:39;;;;;;;2.60;2.35;;;;;;;;;;5022506;28;20244;-27
2023/07/23 12:33:06;;;;;;;2.55;1.80;;;;;;;;;;5035923;28;20212;-25
2023/07/23 12:35:33;;;;;;;5.95;2.30;;;;;;;;;;5022971;28;20301;-27
2023/07/23 12:38:00;;;;;;;2.75;2.10;;;;;;;;;;5024847;28;20211;-27
2023/07/23 12:40:28;;;;;;;2.30;2.08;;;;;;;;;;5012542;28;20208;-26
2023/07/23 12:42:55;;;;;;;3.30;2.10;;;;;;;;;;5021434;28;20266;-27
2023/07/23 12:45:22;;;;;;;2.08;1.92;;;;;;;;;;5025525;28;20202;-28
2023/07/23 12:47:51;;;;;;;1.85;1.67;;;;;;;;;;5026570;28;20209;-27
2023/07/23 12:50:18;;;;;;;2.22;1.90;;;;;;;;;;5029828;28;20247;-24
2023/07/23 12:52:45;;;;;;;2.10;1.80;;;;;;;;;;5026846;28;20375;-29
2023/07/23 12:55:12;;;;;;;2.30;1.92;;;;;;;;;;5015402;28;20213;-28
2023/07/23 12:57:46;;;;;;;1.90;1.70;;;;;;;;;;5020577;28;20734;-29
2023/07/23 13:00:14;;;;;;;2.13;1.60;;;;;;;;;;5014836;28;20596;-29
2023/07/23 13:02:41;;;;;;;3.25;1.50;;;;;;;;;;5015435;28;20233;-29
2023/07/23 13:05:09;;;;;;;2.00;1.75;;;;;;;;;;5017283;28;20197;-28
2023/07/23 13:07:39;;;;;;;3.50;1.73;;;;;;;;;;5014921;28;20213;-29
2023/07/23 13:10:07;;;;;;;3.08;1.83;;;;;;;;;;5014794;28;20223;-25
2023/07/23 13:12:34;;;;;;;2.45;1.88;;;;;;;;;;5017208;28;20216;-26
2023/07/23 13:15:01;;;;;;;7.50;2.15;;;;;;;;;;5025674;28;20206;-30
2023/07/23 13:17:28;;;;;;;1.67;1.58;;;;;;;;;;5028536;28;20207;-29
2023/07/23 13:19:55;;;;;;;1.80;1.70;;;;;;;;;;5030319;28;20251;-26
2023/07/23 13:22:24;;;;;;;2.17;1.60;;;;;;;;;;5045231;28;20310;-26
2023/07/23 13:25:06;;;;;;;2.70;1.90;;;;;;;;;;5037612;28;20257;-29
2023/07/23 13:27:33;;;;;;;3.83;1.63;;;;;;;;;;5035894;28;20238;-28
2023/07/23 13:30:01;;;;;;;4.18;1.90;;;;;;;;;;5043272;28;20231;-25
2023/07/23 13:32:28;;;;;;;2.20;1.73;;;;;;;;;;5029949;28;20232;-24
2023/07/23 13:34:55;;;;;;;5.07;1.70;;;;;;;;;;5023115;28;20261;-27
2023/07/23 13:37:24;;;;;;;3.67;1.70;;;;;;;;;;5025615;28;20660;-27
2023/07/23 13:39:51;;;;;;;2.78;1.70;;;;;;;;;;5022099;28;20767;-30
2023/07/23 13:42:47;;;;;;;1.48;1.38;;;;;;;;;;5021098;28;20221;-26
2023/07/23 13:45:14;;;;;;;2.28;2.03;;;;;;;;;;5021395;28;20213;-28
2023/07/23 13:47:41;;;;;;;2.25;1.83;;;;;;;;;;5022624;28;20206;-25
2023/07/23 13:50:09;;;;;;;2.40;1.85;;;;;;;;;;5024310;28;20233;-28
2023/07/23 13:52:38;;;;;;;1.98;1.75;;;;;;;;;;5021452;28;20212;-27
2023/07/23 13:55:06;;;;;;;1.75;1.65;;;;;;;;;;5018276;28;20214;-30
2023/07/23 13:57:33;;;;;;;1.95;1.70;;;;;;;;;;5017781;28;20212;-30
2023/07/23 14:00:01;;;;;;;1.80;1.70;;;;;;;;;;5027370;28;20241;-29
2023/07/23 14:02:28;;;;;;;1.50;1.40;;;;;;;;;;5022206;28;20320;-29
2023/07/23 14:04:56;;;;;;;2.30;2.10;;;;;;;;;;5021297;28;20219;-28
2023/07/23 14:07:23;;;;;;;3.65;2.38;;;;;;;;;;5030414;28;20315;-28
2023/07/23 14:09:51;;;;;;;4.38;2.25;;;;;;;;;;5014120;28;20248;-29
2023/07/23 14:12:18;;;;;;;3.35;2.97;;;;;;;;;;5016853;28;20204;-29
2023/07/23 14:14:45;;;;;;;7.20;2.92;;;;;;;;;;5018297;28;20219;-28
2023/07/23 14:17:17;;;;;;;6.35;3.10;;;;;;;;;;5026959;28;20199;-27
2023/07/23 14:19:45;;;;;;;4.45;3.35;;;;;;;;;;5012399;28;20237;-27
2023/07/23 14:22:12;;;;;;;4.63;3.13;;;;;;;;;;5018505;28;20231;-26
2023/07/23 14:24:39;;;;;;;7.07;3.33;;;;;;;;;;5032900;28;20202;-27
2023/07/23 14:27:09;;;;;;;3.60;2.90;;;;;;;;;;5017968;28;20226;-29
2023/07/23 14:29:36;;;;;;;4.03;3.35;;;;;;;;;;5012842;28;20233;-27
2023/07/23 14:32:03;;;;;;;4.75;3.30;;;;;;;;;;5029826;28;20200;-29
2023/07/23 14:34:31;;;;;;;5.10;3.25;;;;;;;;;;5026438;28;20451;-27
2023/07/23 14:36:58;;;;;;;7.60;3.05;;;;;;;;;;5023444;28;20206;-26
2023/07/23 14:39:25;;;;;;;5.22;2.92;;;;;;;;;;5018352;28;20225;-28
2023/07/23 14:41:52;;;;;;;4.25;3.08;;;;;;;;;;5014583;28;20202;-28
2023/07/23 14:44:21;;;;;;;4.13;2.55;;;;;;;;;;5016249;28;20217;-29
2023/07/23 14:46:48;;;;;;;3.67;3.05;;;;;;;;;;5020103;28;20210;-28
2023/07/23 14:49:15;;;;;;;3.80;2.95;;;;;;;;;;5011646;28;20235;-29
2023/07/23 14:51:42;;;;;;;4.80;3.30;;;;;;;;;;5020066;28;20216;-29